Pagina principale
METAR-TAF:

METAR-TAF

Aeroporti :

Paganella, Italia

latitudine: 46-09N, longitudine: 011-02E, altezza: 2125 m

Osservazione

Il bollettino è stato emesso 1 ora e 6 minuti fa, alle 14:55 UTC
Vento 16 kt da nord/nord-ovest con raffiche fino a 26 kt
Temperature -3°C
Umidità 39%
Pressione 1008 hPa
Visibilità 10 km o più
Poco nuvoloso ad un'altezza di 3000 ft

METAR: LIVP 191455Z 33016G26KT 9999 FEW030 M03/M15 Q1008 RMK FEW MON LIB VAL NIL VIS MIN 9999

Ora: 17:01 (16:01 UTC)


TAF: mancante

Osservazioni e previsioni meteorologiche di più di 4000 aeroporti (messaggi METAR e TAF).

Le stazioni disponibili sono rappresentate dai dischi gialli e rossi sulla carta.

Puntare il mouse per vedere il nome della stazione.

Clicca sopra per visualizzare le osservazioni e previsioni meteorologiche.

Per cambiare la mappa : fare clic sui pulsanti verdi con una croce nera per ingrandire, il pulsante verde con un trattino per diminuire, o sulla freccia verde per le mappe adiacenti.


METAR-TAF: